首页
METAR-TAF:

METAR-TAF

机场 :

哈马德国际机场

多哈, 卡塔尔

纬度: 25-16-23N, 经度: 51-36-29E, 海拔: 4米

当前天气观测

该预报发布于1小时和1分钟前的06:00 UTC
风速8节,风向西北,在西北转西北之间变化
温度 25°C
湿度 41%
气压 1017 hPa
能见度10公里或以上
1500米以下无云,无积雨云

METAR: OTHH 310600Z AUTO 31008KT 280V340 CAVOK 25/11 Q1017 NOSIG

时间: 10:01 (07:01 UTC)

预报

该预报发布于1小时和53分钟前的05:08 UTC
预报有效从31日的 06点(UTC)到 01日的 12点(UTC)
风速14节,风向北转西北
能见度10公里或以上
1500米以下无云,无积雨云
成为
从 31日的 21点(UTC)到 31日的 23点(UTC)
风速6节,风向西
成为
从 01日的 06点(UTC)到 01日的 08点(UTC)
风速5节,风向东北

TAF: OTHH 310508Z 3106/0112 33014KT CAVOK BECMG 3121/3123 27006KT BECMG 0106/0108 04005KT

超过4000个机场的气象观测和天气预报(METAR&TAF报告)。

可查询的气象台以黄色和红色小点在地图上表示。

将鼠标移到小点上方,可查看气象台名称。

然后点击查看天气观测和预报。

如需切换地图:点击带黑十字的绿色按钮放大地图;点击带横线的绿色按钮缩小地图;或者点击绿色箭头查看邻近地区的地图。


METAR-TAF: